Buoy 41560

sailwx.info

Track history (hours):
 
Tides and Currents Weather Stations Pressure Air Temp Water Temp Dewpoint Dewpoint Depression Visibility Wind Speed Wind Dir Waves Ship Positions

Drifting buoy 41560

Last reported at 2014-Jul-30 02:00 UTC. Time now 2014-Jul-30 04:59 UTC.
Position N 41°22' W 023°11'.

Barometer 1024.1 mb

Date/timePositionNaut miles runAvg speedWind from/ knotsBaromVisibWave heightAir tempDewpointWater temp
2014-Jul-30 02:00N 41°22' W 023°11'0 0.1 1024.1
2014-Jul-29 23:00N 41°21' W 023°11'0 0.2 1025.1
2014-Jul-29 22:00N 41°21' W 023°11'0 0.0 1025.2
2014-Jul-29 21:00N 41°21' W 023°11'0 0.1 1025.1
2014-Jul-29 18:00N 41°21' W 023°11'0 0.4 1025.3
2014-Jul-29 17:00N 41°21' W 023°11'0 0.4 1025.5
2014-Jul-29 16:00N 41°21' W 023°11'0 0.0 1025.4
2014-Jul-29 15:00N 41°21' W 023°11'1 0.2 1025.8
2014-Jul-29 11:00N 41°20' W 023°12'0 0.3 1026.6
2014-Jul-29 10:00N 41°20' W 023°12'0 0.3 1026.5
2014-Jul-29 09:00N 41°19' W 023°12'1 0.7 1026.3
2014-Jul-29 08:00N 41°19' W 023°13'0 0.0 1026.2
2014-Jul-29 07:00N 41°19' W 023°13'1 1.0 1025.9
2014-Jul-29 06:00N 41°19' W 023°12'0 0.4 1025.7
2014-Jul-29 05:00N 41°18' W 023°12'1 1.0 1025.5
2014-Jul-29 04:00N 41°18' W 023°11'0 0.4 1025.6
2014-Jul-29 03:00N 41°17' W 023°11'0 0.2 1026.0
2014-Jul-29 02:00N 41°18' W 023°11'1 0.3 1026.2
2014-Jul-29 00:00N 41°18' W 023°12'0 0.5 1026.7
2014-Jul-28 23:00N 41°17' W 023°12'1 1.1 1027.0
2014-Jul-28 22:00N 41°18' W 023°11'1 0.6 1027.0
2014-Jul-28 21:00N 41°18' W 023°10'1 0.5 1026.6
2014-Jul-28 19:00N 41°18' W 023°11'0 0.5 1026.2
2014-Jul-28 18:00N 41°17' W 023°11'1 0.7 1026.3
2014-Jul-28 17:00N 41°17' W 023°12'0 0.2 1026.3
2014-Jul-28 15:00N 41°17' W 023°12'1 0.8 1026.1
2014-Jul-28 14:00N 41°16' W 023°12'1 0.6 1026.2
2014-Jul-28 12:00N 41°15' W 023°12'0 0.3 1026.1
2014-Jul-28 11:00N 41°15' W 023°12'1 0.4 1026.0
2014-Jul-28 08:00N 41°13' W 023°11'0 0.0 1025.5
2014-Jul-28 07:00N 41°13' W 023°11'1 0.8 1025.0
2014-Jul-28 06:00N 41°14' W 023°10'0 0.2 1024.7
2014-Jul-28 05:00N 41°14' W 023°11'0 0.3 1024.4
2014-Jul-28 04:00N 41°13' W 023°10'1 1.3 1024.5
2014-Jul-28 03:00N 41°14' W 023°12'0 0.0 1024.4
2014-Jul-28 02:00N 41°14' W 023°12'2 1.6 1024.9
2014-Jul-28 01:00N 41°12' W 023°12'1 0.4 1024.9
2014-Jul-27 23:00N 41°12' W 023°13'1 0.6 1025.0
2014-Jul-27 21:00N 41°11' W 023°12'2 0.8 1024.3
2014-Jul-27 19:00N 41°09' W 023°10'0 0.1 1023.3
2014-Jul-27 18:00N 41°09' W 023°10'1 0.5 1023.2
2014-Jul-27 16:00N 41°09' W 023°09'0 0.3 1023.1
2014-Jul-27 15:00N 41°09' W 023°09'0 0.1 1023.4
2014-Jul-27 14:00N 41°08' W 023°10'0 0.1 1023.5
2014-Jul-27 12:00N 41°08' W 023°09'0 0.4 1022.9
2014-Jul-27 11:00N 41°08' W 023°10'1 0.6 1022.6
2014-Jul-27 09:00N 41°07' W 023°11'0 0.0 1022.0
2014-Jul-27 08:00N 41°07' W 023°11'1 0.8 1021.8
2014-Jul-27 07:00N 41°06' W 023°11'1 1.0 1021.2
2014-Jul-27 06:00N 41°06' W 023°10'1 0.5 1020.7
2014-Jul-27 05:00N 41°05' W 023°10'2 1.6 1020.7
2014-Jul-27 04:00N 41°04' W 023°10'0 0.0 1020.4
2014-Jul-27 03:00N 41°04' W 023°10'0 0.1 1020.5
2014-Jul-27 02:00N 41°03' W 023°10'3 2.6 1020.3
2014-Jul-27 01:00N 41°01' W 023°09'0 0.0 1020.6
2014-Jul-26 23:00N 41°01' W 023°09'2 1.6 1020.8
2014-Jul-26 22:00N 41°01' W 023°07'0 0.1 1020.4
2014-Jul-26 21:00N 41°01' W 023°07'1 0.8 1019.9
2014-Jul-26 20:00N 41°01' W 023°06'0 0.2 1019.5
2014-Jul-26 18:00N 41°00' W 023°06'0 0.1 1018.7
2014-Jul-26 17:00N 41°00' W 023°06'0 0.4 1018.6
2014-Jul-26 16:00N 41°00' W 023°05'1 0.7 1018.4
2014-Jul-26 15:00N 40°60' W 023°06'0 0.2 1018.3
2014-Jul-26 14:00N 40°60' W 023°06'2 1.6 1017.9
2014-Jul-26 13:00N 40°58' W 023°07'2 0.9 1018.0
2014-Jul-26 11:00N 40°57' W 023°07'1 0.6 1017.3
2014-Jul-26 10:00N 40°56' W 023°06'3 1.3 1016.9
2014-Jul-26 08:00N 40°54' W 023°05'3 1.3 1015.7
2014-Jul-26 06:00N 40°53' W 023°02'1 0.6 1014.9
2014-Jul-26 05:00N 40°53' W 023°01'0 0.0 1014.7
2014-Jul-26 04:00N 40°53' W 023°01'1 1.0 1014.4
2014-Jul-26 03:00N 40°53' W 023°00'2 0.4 1014.4
2014-Jul-25 22:00N 40°51' W 022°58'1 0.8 1014.3
2014-Jul-25 21:00N 40°51' W 022°57'3 0.9 1014.0
2014-Jul-25 18:00N 40°48' W 022°57'1 0.7 1013.0
2014-Jul-25 17:00N 40°48' W 022°58'1 1.3 1013.1
2014-Jul-25 16:00N 40°47' W 022°57'2 0.8 1013.2
2014-Jul-25 14:00N 40°46' W 022°55'1 1.2 1013.6
2014-Jul-25 13:00N 40°45' W 022°54'1 0.9 1013.6
2014-Jul-25 12:00N 40°45' W 022°53'1 1.0 1013.7
2014-Jul-25 11:00N 40°45' W 022°52'0 0.2 1013.7
2014-Jul-25 10:00N 40°45' W 022°52'2 1.8 1014.1
2014-Jul-25 09:00N 40°43' W 022°51'1 0.7 1014.2
2014-Jul-25 07:00N 40°42' W 022°50'1 0.3 1014.1
2014-Jul-25 03:00N 40°41' W 022°50'2 0.6 1015.4
2014-Jul-25 00:00N 40°39' W 022°49'2 1.9 1017.3
2014-Jul-24 23:00N 40°39' W 022°47'1 0.8 1017.7
2014-Jul-24 22:00N 40°38' W 022°47'0 0.4 1018.1
2014-Jul-24 21:00N 40°38' W 022°47'2 1.1 1018.2
2014-Jul-24 19:00N 40°36' W 022°47'0 0.0 1018.5
2014-Jul-24 18:00N 40°36' W 022°47'1 1.1 1018.9
2014-Jul-24 17:00N 40°35' W 022°47'1 0.6 1019.3
2014-Jul-24 16:00N 40°34' W 022°47'1 0.7 1019.9
2014-Jul-24 15:00N 40°33' W 022°47'1 0.7 1020.5
2014-Jul-24 13:00N 40°32' W 022°46'1 0.8 1021.3
2014-Jul-24 12:00N 40°32' W 022°45'0 0.3 1021.9
2014-Jul-24 11:00N 40°32' W 022°45'0 0.5 1021.6
2014-Jul-24 10:00N 40°32' W 022°44'2 0.6 1022.0
2014-Jul-24 07:00N 40°30' W 022°44'0 0.3 1022.0
2014-Jul-24 06:00N 40°30' W 022°44'0 0.5 1022.3
2014-Jul-24 05:00N 40°29' W 022°44'1 0.6 1022.4
2014-Jul-24 03:00N 40°28' W 022°45'3 0.9 1023.2
2014-Jul-24 00:00N 40°26' W 022°42'0 0.0 1024.5
2014-Jul-23 23:00N 40°26' W 022°42'1 0.6 1024.6
2014-Jul-23 21:00N 40°26' W 022°41'0 0.4 1024.5
2014-Jul-23 20:00N 40°26' W 022°41'1 0.4 1024.4
2014-Jul-23 18:00N 40°25' W 022°41'1 0.8 1024.2
2014-Jul-23 17:00N 40°24' W 022°41'0 0.1 1024.2
2014-Jul-23 16:00N 40°24' W 022°41'0 0.4 1024.4
2014-Jul-23 15:00N 40°24' W 022°40'1 0.4 1024.5
2014-Jul-23 13:00N 40°24' W 022°39'0 0.0 1024.6
2014-Jul-23 12:00N 40°24' W 022°39'0 0.0 1024.5
2014-Jul-23 11:00N 40°24' W 022°39'1 0.6 1024.5
2014-Jul-23 10:00N 40°24' W 022°40'1 0.3 1024.1
2014-Jul-23 08:00N 40°24' W 022°41'1 0.7 1023.7
2014-Jul-23 07:00N 40°23' W 022°41'1 0.5 1023.2
2014-Jul-23 06:00N 40°23' W 022°40'1 0.6 1023.0
2014-Jul-23 05:00N 40°22' W 022°41'1 0.7 1022.9
2014-Jul-23 04:00N 40°22' W 022°40'0 0.5 1023.2
2014-Jul-23 03:00N 40°21' W 022°40'1 0.4 1023.1
2014-Jul-22 23:00N 40°21' W 022°38'1 0.8 1024.2
2014-Jul-22 22:00N 40°22' W 022°37'1 0.6 1024.0
2014-Jul-22 21:00N 40°22' W 022°38'1 0.7 1023.7
2014-Jul-22 20:00N 40°22' W 022°38'0 0.4 1023.2
2014-Jul-22 19:00N 40°23' W 022°39'1 1.0 1022.9
2014-Jul-22 18:00N 40°21' W 022°39'0 0.5 1022.7
2014-Jul-22 17:00N 40°21' W 022°39'0 0.3 1022.5
2014-Jul-22 16:00N 40°21' W 022°39'1 0.5 1022.5
2014-Jul-22 15:00N 40°20' W 022°39'1 0.7 1022.4
2014-Jul-22 13:00N 40°19' W 022°38'0 0.1 1022.5
2014-Jul-22 12:00N 40°19' W 022°38'2 0.8 1022.6
2014-Jul-22 10:00N 40°19' W 022°36'1 0.6 1022.0
2014-Jul-22 09:00N 40°19' W 022°35'0 0.3 1022.1
2014-Jul-22 08:00N 40°19' W 022°35'1 0.7 1021.7
2014-Jul-22 07:00N 40°19' W 022°34'0 0.1 1021.3
2014-Jul-22 06:00N 40°19' W 022°34'0 0.0 1021.0
2014-Jul-22 05:00N 40°19' W 022°34'0 0.4 1020.7
2014-Jul-22 04:00N 40°19' W 022°35'0 0.1 1020.6
2014-Jul-22 03:00N 40°19' W 022°35'1 0.4 1020.7
2014-Jul-22 00:00N 40°17' W 022°35'0 0.0 1022.1
2014-Jul-21 23:00N 40°17' W 022°35'1 0.7 1022.4
2014-Jul-21 22:00N 40°17' W 022°34'1 0.8 1022.5
2014-Jul-21 21:00N 40°18' W 022°35'1 0.7 1022.3
2014-Jul-21 20:00N 40°17' W 022°34'1 0.4 1022.1
2014-Jul-21 18:00N 40°16' W 022°35'0 0.5 1021.9
2014-Jul-21 17:00N 40°16' W 022°35'0 0.3 1022.2
2014-Jul-21 16:00N 40°16' W 022°35'0 0.2 1022.5
2014-Jul-21 15:00N 40°16' W 022°35'1 0.3 1022.8
2014-Jul-21 12:00N 40°15' W 022°35'1 0.8 1023.6
2014-Jul-21 11:00N 40°14' W 022°34'1 0.6 1023.5
2014-Jul-21 10:00N 40°15' W 022°33'1 0.6 1023.5
2014-Jul-21 09:00N 40°14' W 022°34'0 0.2 1023.5
2014-Jul-21 08:00N 40°14' W 022°33'0 0.3 1023.2
2014-Jul-21 07:00N 40°14' W 022°33'1 0.3 1023.0
2014-Jul-21 05:00N 40°14' W 022°34'1 0.6 1022.8
2014-Jul-21 04:00N 40°14' W 022°34'0 0.2 1022.7
2014-Jul-21 02:00N 40°13' W 022°34'0 0.0 1023.3
2014-Jul-21 01:00N 40°13' W 022°34'2 0.6 1023.7
2014-Jul-20 22:00N 40°12' W 022°33'0 0.3 1023.8
2014-Jul-20 21:00N 40°12' W 022°33'0 0.5 1023.4
2014-Jul-20 20:00N 40°12' W 022°33'0 0.0 1023.3
2014-Jul-20 19:00N 40°12' W 022°33'1 0.5 1023.0
2014-Jul-20 18:00N 40°11' W 022°33'0 0.3 1022.9
2014-Jul-20 17:00N 40°11' W 022°33'1 0.3 1023.0
2014-Jul-20 15:00N 40°11' W 022°33'0 0.5 1023.3
2014-Jul-20 14:00N 40°10' W 022°32'1 0.5 1023.3
2014-Jul-20 12:00N 40°11' W 022°31'0 0.1 1023.0
2014-Jul-20 11:00N 40°11' W 022°31'0 0.1 1022.6
2014-Jul-20 10:00N 40°11' W 022°31'1 0.6 1022.3
2014-Jul-20 08:00N 40°10' W 022°33'0 0.0 1021.8
2014-Jul-20 07:00N 40°10' W 022°33'1 0.6 1021.3
2014-Jul-20 06:00N 40°10' W 022°34'0 0.4 1020.8
2014-Jul-20 05:00N 40°10' W 022°33'0 0.5 1020.6
2014-Jul-20 04:00N 40°09' W 022°34'1 0.8 1020.6
2014-Jul-20 03:00N 40°09' W 022°33'   1020.7
Track history (hours):
 
Tides and Currents Weather Stations Pressure Air Temp Water Temp Dewpoint Dewpoint Depression Visibility Wind Speed Wind Dir Waves Ship Positions

Drifting buoy 41560

Last reported at 2014-Jul-30 02:00 UTC. Time now 2014-Jul-30 04:59 UTC.
Position N 41°22' W 023°11'.

Barometer 1024.1 mb

Date/timePositionNaut miles runAvg speedWind from/ knotsBaromVisibWave heightAir tempDewpointWater temp
2014-Jul-30 02:00N 41°22' W 023°11'0 0.1 1024.1
2014-Jul-29 23:00N 41°21' W 023°11'0 0.2 1025.1
2014-Jul-29 22:00N 41°21' W 023°11'0 0.0 1025.2
2014-Jul-29 21:00N 41°21' W 023°11'0 0.1 1025.1
2014-Jul-29 18:00N 41°21' W 023°11'0 0.4 1025.3
2014-Jul-29 17:00N 41°21' W 023°11'0 0.4 1025.5
2014-Jul-29 16:00N 41°21' W 023°11'0 0.0 1025.4
2014-Jul-29 15:00N 41°21' W 023°11'1 0.2 1025.8
2014-Jul-29 11:00N 41°20' W 023°12'0 0.3 1026.6
2014-Jul-29 10:00N 41°20' W 023°12'0 0.3 1026.5
2014-Jul-29 09:00N 41°19' W 023°12'1 0.7 1026.3
2014-Jul-29 08:00N 41°19' W 023°13'0 0.0 1026.2
2014-Jul-29 07:00N 41°19' W 023°13'1 1.0 1025.9
2014-Jul-29 06:00N 41°19' W 023°12'0 0.4 1025.7
2014-Jul-29 05:00N 41°18' W 023°12'1 1.0 1025.5
2014-Jul-29 04:00N 41°18' W 023°11'0 0.4 1025.6
2014-Jul-29 03:00N 41°17' W 023°11'0 0.2 1026.0
2014-Jul-29 02:00N 41°18' W 023°11'1 0.3 1026.2
2014-Jul-29 00:00N 41°18' W 023°12'0 0.5 1026.7
2014-Jul-28 23:00N 41°17' W 023°12'1 1.1 1027.0
2014-Jul-28 22:00N 41°18' W 023°11'1 0.6 1027.0
2014-Jul-28 21:00N 41°18' W 023°10'1 0.5 1026.6
2014-Jul-28 19:00N 41°18' W 023°11'0 0.5 1026.2
2014-Jul-28 18:00N 41°17' W 023°11'1 0.7 1026.3
2014-Jul-28 17:00N 41°17' W 023°12'0 0.2 1026.3
2014-Jul-28 15:00N 41°17' W 023°12'1 0.8 1026.1
2014-Jul-28 14:00N 41°16' W 023°12'1 0.6 1026.2
2014-Jul-28 12:00N 41°15' W 023°12'0 0.3 1026.1
2014-Jul-28 11:00N 41°15' W 023°12'1 0.4 1026.0
2014-Jul-28 08:00N 41°13' W 023°11'0 0.0 1025.5
2014-Jul-28 07:00N 41°13' W 023°11'1 0.8 1025.0
2014-Jul-28 06:00N 41°14' W 023°10'0 0.2 1024.7
2014-Jul-28 05:00N 41°14' W 023°11'0 0.3 1024.4
2014-Jul-28 04:00N 41°13' W 023°10'1 1.3 1024.5
2014-Jul-28 03:00N 41°14' W 023°12'0 0.0 1024.4
2014-Jul-28 02:00N 41°14' W 023°12'2 1.6 1024.9
2014-Jul-28 01:00N 41°12' W 023°12'1 0.4 1024.9
2014-Jul-27 23:00N 41°12' W 023°13'1 0.6 1025.0
2014-Jul-27 21:00N 41°11' W 023°12'2 0.8 1024.3
2014-Jul-27 19:00N 41°09' W 023°10'0 0.1 1023.3
2014-Jul-27 18:00N 41°09' W 023°10'1 0.5 1023.2
2014-Jul-27 16:00N 41°09' W 023°09'0 0.3 1023.1
2014-Jul-27 15:00N 41°09' W 023°09'0 0.1 1023.4
2014-Jul-27 14:00N 41°08' W 023°10'0 0.1 1023.5
2014-Jul-27 12:00N 41°08' W 023°09'0 0.4 1022.9
2014-Jul-27 11:00N 41°08' W 023°10'1 0.6 1022.6
2014-Jul-27 09:00N 41°07' W 023°11'0 0.0 1022.0
2014-Jul-27 08:00N 41°07' W 023°11'1 0.8 1021.8
2014-Jul-27 07:00N 41°06' W 023°11'1 1.0 1021.2
2014-Jul-27 06:00N 41°06' W 023°10'1 0.5 1020.7
2014-Jul-27 05:00N 41°05' W 023°10'2 1.6 1020.7
2014-Jul-27 04:00N 41°04' W 023°10'0 0.0 1020.4
2014-Jul-27 03:00N 41°04' W 023°10'0 0.1 1020.5
2014-Jul-27 02:00N 41°03' W 023°10'3 2.6 1020.3
2014-Jul-27 01:00N 41°01' W 023°09'0 0.0 1020.6
2014-Jul-26 23:00N 41°01' W 023°09'2 1.6 1020.8
2014-Jul-26 22:00N 41°01' W 023°07'0 0.1 1020.4
2014-Jul-26 21:00N 41°01' W 023°07'1 0.8 1019.9
2014-Jul-26 20:00N 41°01' W 023°06'0 0.2 1019.5
2014-Jul-26 18:00N 41°00' W 023°06'0 0.1 1018.7
2014-Jul-26 17:00N 41°00' W 023°06'0 0.4 1018.6
2014-Jul-26 16:00N 41°00' W 023°05'1 0.7 1018.4
2014-Jul-26 15:00N 40°60' W 023°06'0 0.2 1018.3
2014-Jul-26 14:00N 40°60' W 023°06'2 1.6 1017.9
2014-Jul-26 13:00N 40°58' W 023°07'2 0.9 1018.0
2014-Jul-26 11:00N 40°57' W 023°07'1 0.6 1017.3
2014-Jul-26 10:00N 40°56' W 023°06'3 1.3 1016.9
2014-Jul-26 08:00N 40°54' W 023°05'3 1.3 1015.7
2014-Jul-26 06:00N 40°53' W 023°02'1 0.6 1014.9
2014-Jul-26 05:00N 40°53' W 023°01'0 0.0 1014.7
2014-Jul-26 04:00N 40°53' W 023°01'1 1.0 1014.4
2014-Jul-26 03:00N 40°53' W 023°00'2 0.4 1014.4
2014-Jul-25 22:00N 40°51' W 022°58'1 0.8 1014.3
2014-Jul-25 21:00N 40°51' W 022°57'3 0.9 1014.0
2014-Jul-25 18:00N 40°48' W 022°57'1 0.7 1013.0
2014-Jul-25 17:00N 40°48' W 022°58'1 1.3 1013.1
2014-Jul-25 16:00N 40°47' W 022°57'2 0.8 1013.2
2014-Jul-25 14:00N 40°46' W 022°55'1 1.2 1013.6
2014-Jul-25 13:00N 40°45' W 022°54'1 0.9 1013.6
2014-Jul-25 12:00N 40°45' W 022°53'1 1.0 1013.7
2014-Jul-25 11:00N 40°45' W 022°52'0 0.2 1013.7
2014-Jul-25 10:00N 40°45' W 022°52'2 1.8 1014.1
2014-Jul-25 09:00N 40°43' W 022°51'1 0.7 1014.2
2014-Jul-25 07:00N 40°42' W 022°50'1 0.3 1014.1
2014-Jul-25 03:00N 40°41' W 022°50'2 0.6 1015.4
2014-Jul-25 00:00N 40°39' W 022°49'2 1.9 1017.3
2014-Jul-24 23:00N 40°39' W 022°47'1 0.8 1017.7
2014-Jul-24 22:00N 40°38' W 022°47'0 0.4 1018.1
2014-Jul-24 21:00N 40°38' W 022°47'2 1.1 1018.2
2014-Jul-24 19:00N 40°36' W 022°47'0 0.0 1018.5
2014-Jul-24 18:00N 40°36' W 022°47'1 1.1 1018.9
2014-Jul-24 17:00N 40°35' W 022°47'1 0.6 1019.3
2014-Jul-24 16:00N 40°34' W 022°47'1 0.7 1019.9
2014-Jul-24 15:00N 40°33' W 022°47'1 0.7 1020.5
2014-Jul-24 13:00N 40°32' W 022°46'1 0.8 1021.3
2014-Jul-24 12:00N 40°32' W 022°45'0 0.3 1021.9
2014-Jul-24 11:00N 40°32' W 022°45'0 0.5 1021.6
2014-Jul-24 10:00N 40°32' W 022°44'2 0.6 1022.0
2014-Jul-24 07:00N 40°30' W 022°44'0 0.3 1022.0
2014-Jul-24 06:00N 40°30' W 022°44'0 0.5 1022.3
2014-Jul-24 05:00N 40°29' W 022°44'1 0.6 1022.4
2014-Jul-24 03:00N 40°28' W 022°45'3 0.9 1023.2
2014-Jul-24 00:00N 40°26' W 022°42'0 0.0 1024.5
2014-Jul-23 23:00N 40°26' W 022°42'1 0.6 1024.6
2014-Jul-23 21:00N 40°26' W 022°41'0 0.4 1024.5
2014-Jul-23 20:00N 40°26' W 022°41'1 0.4 1024.4
2014-Jul-23 18:00N 40°25' W 022°41'1 0.8 1024.2
2014-Jul-23 17:00N 40°24' W 022°41'0 0.1 1024.2
2014-Jul-23 16:00N 40°24' W 022°41'0 0.4 1024.4
2014-Jul-23 15:00N 40°24' W 022°40'1 0.4 1024.5
2014-Jul-23 13:00N 40°24' W 022°39'0 0.0 1024.6
2014-Jul-23 12:00N 40°24' W 022°39'0 0.0 1024.5
2014-Jul-23 11:00N 40°24' W 022°39'1 0.6 1024.5
2014-Jul-23 10:00N 40°24' W 022°40'1 0.3 1024.1
2014-Jul-23 08:00N 40°24' W 022°41'1 0.7 1023.7
2014-Jul-23 07:00N 40°23' W 022°41'1 0.5 1023.2
2014-Jul-23 06:00N 40°23' W 022°40'1 0.6 1023.0
2014-Jul-23 05:00N 40°22' W 022°41'1 0.7 1022.9
2014-Jul-23 04:00N 40°22' W 022°40'0 0.5 1023.2
2014-Jul-23 03:00N 40°21' W 022°40'1 0.4 1023.1
2014-Jul-22 23:00N 40°21' W 022°38'1 0.8 1024.2
2014-Jul-22 22:00N 40°22' W 022°37'1 0.6 1024.0
2014-Jul-22 21:00N 40°22' W 022°38'1 0.7 1023.7
2014-Jul-22 20:00N 40°22' W 022°38'0 0.4 1023.2
2014-Jul-22 19:00N 40°23' W 022°39'1 1.0 1022.9
2014-Jul-22 18:00N 40°21' W 022°39'0 0.5 1022.7
2014-Jul-22 17:00N 40°21' W 022°39'0 0.3 1022.5
2014-Jul-22 16:00N 40°21' W 022°39'1 0.5 1022.5
2014-Jul-22 15:00N 40°20' W 022°39'1 0.7 1022.4
2014-Jul-22 13:00N 40°19' W 022°38'0 0.1 1022.5
2014-Jul-22 12:00N 40°19' W 022°38'2 0.8 1022.6
2014-Jul-22 10:00N 40°19' W 022°36'1 0.6 1022.0
2014-Jul-22 09:00N 40°19' W 022°35'0 0.3 1022.1
2014-Jul-22 08:00N 40°19' W 022°35'1 0.7 1021.7
2014-Jul-22 07:00N 40°19' W 022°34'0 0.1 1021.3
2014-Jul-22 06:00N 40°19' W 022°34'0 0.0 1021.0
2014-Jul-22 05:00N 40°19' W 022°34'0 0.4 1020.7
2014-Jul-22 04:00N 40°19' W 022°35'0 0.1 1020.6
2014-Jul-22 03:00N 40°19' W 022°35'1 0.4 1020.7
2014-Jul-22 00:00N 40°17' W 022°35'0 0.0 1022.1
2014-Jul-21 23:00N 40°17' W 022°35'1 0.7 1022.4
2014-Jul-21 22:00N 40°17' W 022°34'1 0.8 1022.5
2014-Jul-21 21:00N 40°18' W 022°35'1 0.7 1022.3
2014-Jul-21 20:00N 40°17' W 022°34'1 0.4 1022.1
2014-Jul-21 18:00N 40°16' W 022°35'0 0.5 1021.9
2014-Jul-21 17:00N 40°16' W 022°35'0 0.3 1022.2
2014-Jul-21 16:00N 40°16' W 022°35'0 0.2 1022.5
2014-Jul-21 15:00N 40°16' W 022°35'1 0.3 1022.8
2014-Jul-21 12:00N 40°15' W 022°35'1 0.8 1023.6
2014-Jul-21 11:00N 40°14' W 022°34'1 0.6 1023.5
2014-Jul-21 10:00N 40°15' W 022°33'1 0.6 1023.5
2014-Jul-21 09:00N 40°14' W 022°34'0 0.2 1023.5
2014-Jul-21 08:00N 40°14' W 022°33'0 0.3 1023.2
2014-Jul-21 07:00N 40°14' W 022°33'1 0.3 1023.0
2014-Jul-21 05:00N 40°14' W 022°34'1 0.6 1022.8
2014-Jul-21 04:00N 40°14' W 022°34'0 0.2 1022.7
2014-Jul-21 02:00N 40°13' W 022°34'0 0.0 1023.3
2014-Jul-21 01:00N 40°13' W 022°34'2 0.6 1023.7
2014-Jul-20 22:00N 40°12' W 022°33'0 0.3 1023.8
2014-Jul-20 21:00N 40°12' W 022°33'0 0.5 1023.4
2014-Jul-20 20:00N 40°12' W 022°33'0 0.0 1023.3
2014-Jul-20 19:00N 40°12' W 022°33'1 0.5 1023.0
2014-Jul-20 18:00N 40°11' W 022°33'0 0.3 1022.9
2014-Jul-20 17:00N 40°11' W 022°33'1 0.3 1023.0
2014-Jul-20 15:00N 40°11' W 022°33'0 0.5 1023.3
2014-Jul-20 14:00N 40°10' W 022°32'1 0.5 1023.3
2014-Jul-20 12:00N 40°11' W 022°31'0 0.1 1023.0
2014-Jul-20 11:00N 40°11' W 022°31'0 0.1 1022.6
2014-Jul-20 10:00N 40°11' W 022°31'1 0.6 1022.3
2014-Jul-20 08:00N 40°10' W 022°33'0 0.0 1021.8
2014-Jul-20 07:00N 40°10' W 022°33'1 0.6 1021.3
2014-Jul-20 06:00N 40°10' W 022°34'0 0.4 1020.8
2014-Jul-20 05:00N 40°10' W 022°33'0 0.5 1020.6
2014-Jul-20 04:00N 40°09' W 022°34'1 0.8 1020.6
2014-Jul-20 03:00N 40°09' W 022°33'   1020.7

Dump ship's entire track history